Terminal Aerodrome Forecast
Issued by NWS Melbourne, FL

Current Version | Previous Version | Text Only | Print | Product List | Glossary On
Versions: 1 2 3 4 5 6 7 8 9 10 11 12 13 14
000
FTUS42 KMLB 302320
TAFMLB
TAF
KMLB 302320Z 3100/3124 13011KT P6SM SCT040 SCT250
     FM310100 VRB04KT P6SM FEW030 SCT250
     FM311400 13005KT P6SM FEW035
     FM311700 11010KT P6SM SCT040=

USA.gov is the U.S. government's official web portal to all federal, state and local government web resources and services.